sensor_id;sensor_type;location;lat;lon;timestamp;temperature;humidity
51982;DHT22;37998;53.416;6.730;2022-07-04T00:00:08;13.90;99.90
51982;DHT22;37998;53.416;6.730;2022-07-04T00:02:35;14.00;99.90
51982;DHT22;37998;53.416;6.730;2022-07-04T00:05:01;14.00;99.90
51982;DHT22;37998;53.416;6.730;2022-07-04T00:07:27;14.10;99.90
51982;DHT22;37998;53.416;6.730;2022-07-04T00:09:53;14.10;99.90
51982;DHT22;37998;53.416;6.730;2022-07-04T00:12:18;14.10;99.90
51982;DHT22;37998;53.416;6.730;2022-07-04T00:14:44;14.10;99.90
51982;DHT22;37998;53.416;6.730;2022-07-04T00:17:10;14.10;99.90
51982;DHT22;37998;53.416;6.730;2022-07-04T00:19:35;14.20;99.90
51982;DHT22;37998;53.416;6.730;2022-07-04T00:22:01;14.10;99.90
51982;DHT22;37998;53.416;6.730;2022-07-04T00:24:27;14.10;99.90
51982;DHT22;37998;53.416;6.730;2022-07-04T00:26:53;14.10;99.90
51982;DHT22;37998;53.416;6.730;2022-07-04T00:29:19;14.10;99.90
51982;DHT22;37998;53.416;6.730;2022-07-04T00:31:44;14.10;99.90
51982;DHT22;37998;53.416;6.730;2022-07-04T00:34:10;14.10;99.90
51982;DHT22;37998;53.416;6.730;2022-07-04T00:36:36;14.00;99.90
51982;DHT22;37998;53.416;6.730;2022-07-04T00:39:02;14.00;99.90
51982;DHT22;37998;53.416;6.730;2022-07-04T00:41:28;14.00;99.90
51982;DHT22;37998;53.416;6.730;2022-07-04T00:44:08;14.00;99.90
51982;DHT22;37998;53.416;6.730;2022-07-04T00:46:34;14.00;99.90
51982;DHT22;37998;53.416;6.730;2022-07-04T00:49:02;14.10;99.90
51982;DHT22;37998;53.416;6.730;2022-07-04T00:51:28;14.00;99.90
51982;DHT22;37998;53.416;6.730;2022-07-04T00:53:54;14.10;99.90
51982;DHT22;37998;53.416;6.730;2022-07-04T00:56:21;14.00;99.90
51982;DHT22;37998;53.416;6.730;2022-07-04T00:58:47;14.00;99.90
51982;DHT22;37998;53.416;6.730;2022-07-04T01:01:13;14.00;99.90
51982;DHT22;37998;53.416;6.730;2022-07-04T01:03:39;14.00;99.90
51982;DHT22;37998;53.416;6.730;2022-07-04T01:06:06;14.00;99.90
51982;DHT22;37998;53.416;6.730;2022-07-04T01:08:37;14.00;99.90
51982;DHT22;37998;53.416;6.730;2022-07-04T01:11:05;13.90;99.90
51982;DHT22;37998;53.416;6.730;2022-07-04T01:13:31;13.90;99.90
51982;DHT22;37998;53.416;6.730;2022-07-04T01:15:56;13.80;99.90
51982;DHT22;37998;53.416;6.730;2022-07-04T01:18:22;13.70;99.90
51982;DHT22;37998;53.416;6.730;2022-07-04T01:20:48;13.60;99.90
51982;DHT22;37998;53.416;6.730;2022-07-04T01:23:17;13.50;99.90
51982;DHT22;37998;53.416;6.730;2022-07-04T01:25:43;13.40;99.90
51982;DHT22;37998;53.416;6.730;2022-07-04T01:28:10;13.40;99.90
51982;DHT22;37998;53.416;6.730;2022-07-04T01:30:36;13.40;99.90
51982;DHT22;37998;53.416;6.730;2022-07-04T01:33:03;13.40;99.90
51982;DHT22;37998;53.416;6.730;2022-07-04T01:35:29;13.40;99.90
51982;DHT22;37998;53.416;6.730;2022-07-04T01:37:55;13.40;99.90
51982;DHT22;37998;53.416;6.730;2022-07-04T01:40:21;13.40;99.90
51982;DHT22;37998;53.416;6.730;2022-07-04T01:42:47;13.40;99.90
51982;DHT22;37998;53.416;6.730;2022-07-04T01:45:13;13.30;99.90
51982;DHT22;37998;53.416;6.730;2022-07-04T01:47:39;13.20;99.90
51982;DHT22;37998;53.416;6.730;2022-07-04T01:50:06;13.10;99.90
51982;DHT22;37998;53.416;6.730;2022-07-04T01:52:33;13.00;99.90
51982;DHT22;37998;53.416;6.730;2022-07-04T01:54:59;13.00;99.90
51982;DHT22;37998;53.416;6.730;2022-07-04T01:57:24;12.90;99.90
51982;DHT22;37998;53.416;6.730;2022-07-04T01:59:51;12.90;99.90
51982;DHT22;37998;53.416;6.730;2022-07-04T02:02:35;12.90;99.90
51982;DHT22;37998;53.416;6.730;2022-07-04T02:05:01;12.90;99.90
51982;DHT22;37998;53.416;6.730;2022-07-04T02:07:27;12.80;99.90
51982;DHT22;37998;53.416;6.730;2022-07-04T02:09:52;12.80;99.90
51982;DHT22;37998;53.416;6.730;2022-07-04T02:12:18;12.80;99.90
51982;DHT22;37998;53.416;6.730;2022-07-04T02:15:03;12.80;99.90
51982;DHT22;37998;53.416;6.730;2022-07-04T02:17:28;12.70;99.90
51982;DHT22;37998;53.416;6.730;2022-07-04T02:19:54;12.70;99.90
51982;DHT22;37998;53.416;6.730;2022-07-04T02:22:20;12.60;99.90
51982;DHT22;37998;53.416;6.730;2022-07-04T02:24:46;12.50;99.90
51982;DHT22;37998;53.416;6.730;2022-07-04T02:27:11;12.50;99.90
51982;DHT22;37998;53.416;6.730;2022-07-04T02:29:37;12.50;99.90
51982;DHT22;37998;53.416;6.730;2022-07-04T02:32:03;12.40;99.90
51982;DHT22;37998;53.416;6.730;2022-07-04T02:34:29;12.50;99.90
51982;DHT22;37998;53.416;6.730;2022-07-04T02:36:55;12.50;99.90
51982;DHT22;37998;53.416;6.730;2022-07-04T02:39:21;12.50;99.90
51982;DHT22;37998;53.416;6.730;2022-07-04T02:41:47;12.50;99.90
51982;DHT22;37998;53.416;6.730;2022-07-04T02:44:12;12.40;99.90
51982;DHT22;37998;53.416;6.730;2022-07-04T02:46:38;12.40;99.90
51982;DHT22;37998;53.416;6.730;2022-07-04T02:49:04;12.40;99.90
51982;DHT22;37998;53.416;6.730;2022-07-04T02:51:30;12.30;99.90
51982;DHT22;37998;53.416;6.730;2022-07-04T02:53:56;12.30;99.90
51982;DHT22;37998;53.416;6.730;2022-07-04T02:56:22;12.30;99.90
51982;DHT22;37998;53.416;6.730;2022-07-04T02:58:48;12.20;99.90
51982;DHT22;37998;53.416;6.730;2022-07-04T03:01:13;12.20;99.90
51982;DHT22;37998;53.416;6.730;2022-07-04T03:03:40;12.20;99.90
51982;DHT22;37998;53.416;6.730;2022-07-04T03:06:07;12.10;99.90
51982;DHT22;37998;53.416;6.730;2022-07-04T03:08:33;12.20;99.90
51982;DHT22;37998;53.416;6.730;2022-07-04T03:10:59;12.20;99.90
51982;DHT22;37998;53.416;6.730;2022-07-04T03:13:25;12.30;99.90
51982;DHT22;37998;53.416;6.730;2022-07-04T03:15:52;12.30;99.90
51982;DHT22;37998;53.416;6.730;2022-07-04T03:18:18;12.20;99.90
51982;DHT22;37998;53.416;6.730;2022-07-04T03:20:44;12.20;99.90
51982;DHT22;37998;53.416;6.730;2022-07-04T03:23:10;12.20;99.90
51982;DHT22;37998;53.416;6.730;2022-07-04T03:25:35;12.20;99.90
51982;DHT22;37998;53.416;6.730;2022-07-04T03:28:02;12.20;99.90
51982;DHT22;37998;53.416;6.730;2022-07-04T03:30:27;12.20;99.90
51982;DHT22;37998;53.416;6.730;2022-07-04T03:32:53;12.20;99.90
51982;DHT22;37998;53.416;6.730;2022-07-04T03:35:19;12.20;99.90
51982;DHT22;37998;53.416;6.730;2022-07-04T03:37:45;12.30;99.90
51982;DHT22;37998;53.416;6.730;2022-07-04T03:40:11;12.30;99.90
51982;DHT22;37998;53.416;6.730;2022-07-04T03:42:36;12.30;99.90
51982;DHT22;37998;53.416;6.730;2022-07-04T03:45:03;12.30;99.90
51982;DHT22;37998;53.416;6.730;2022-07-04T03:47:28;12.30;99.90
51982;DHT22;37998;53.416;6.730;2022-07-04T03:49:54;12.40;99.90
51982;DHT22;37998;53.416;6.730;2022-07-04T03:52:20;12.40;99.90
51982;DHT22;37998;53.416;6.730;2022-07-04T03:54:45;12.40;99.90
51982;DHT22;37998;53.416;6.730;2022-07-04T03:57:11;12.50;99.90
51982;DHT22;37998;53.416;6.730;2022-07-04T03:59:37;12.50;99.90
51982;DHT22;37998;53.416;6.730;2022-07-04T04:02:03;12.70;99.90
51982;DHT22;37998;53.416;6.730;2022-07-04T04:04:28;12.60;99.90
51982;DHT22;37998;53.416;6.730;2022-07-04T04:07:13;12.70;99.90
51982;DHT22;37998;53.416;6.730;2022-07-04T04:09:38;12.70;99.90
51982;DHT22;37998;53.416;6.730;2022-07-04T04:12:04;12.70;99.90
51982;DHT22;37998;53.416;6.730;2022-07-04T04:14:30;12.80;99.90
51982;DHT22;37998;53.416;6.730;2022-07-04T04:16:56;12.90;99.90
51982;DHT22;37998;53.416;6.730;2022-07-04T04:19:21;13.00;99.90
51982;DHT22;37998;53.416;6.730;2022-07-04T04:21:47;13.00;99.90
51982;DHT22;37998;53.416;6.730;2022-07-04T04:24:13;13.10;99.90
51982;DHT22;37998;53.416;6.730;2022-07-04T04:26:38;13.10;99.90
51982;DHT22;37998;53.416;6.730;2022-07-04T04:29:04;13.20;99.90
51982;DHT22;37998;53.416;6.730;2022-07-04T04:31:29;13.20;99.90
51982;DHT22;37998;53.416;6.730;2022-07-04T04:33:56;13.30;99.90
51982;DHT22;37998;53.416;6.730;2022-07-04T04:36:23;13.30;99.90
51982;DHT22;37998;53.416;6.730;2022-07-04T04:38:48;13.40;99.90
51982;DHT22;37998;53.416;6.730;2022-07-04T04:41:14;13.40;99.90
51982;DHT22;37998;53.416;6.730;2022-07-04T04:43:41;13.50;99.90
51982;DHT22;37998;53.416;6.730;2022-07-04T04:46:07;13.60;99.90
51982;DHT22;37998;53.416;6.730;2022-07-04T04:48:33;13.70;99.90
51982;DHT22;37998;53.416;6.730;2022-07-04T04:50:58;13.70;99.90
51982;DHT22;37998;53.416;6.730;2022-07-04T04:53:24;13.70;99.90
51982;DHT22;37998;53.416;6.730;2022-07-04T04:55:54;13.80;99.90
51982;DHT22;37998;53.416;6.730;2022-07-04T04:58:20;13.90;99.90
51982;DHT22;37998;53.416;6.730;2022-07-04T05:00:46;14.00;99.90
51982;DHT22;37998;53.416;6.730;2022-07-04T05:03:14;14.00;99.90
51982;DHT22;37998;53.416;6.730;2022-07-04T05:05:40;14.10;99.90
51982;DHT22;37998;53.416;6.730;2022-07-04T05:08:05;14.20;99.90
51982;DHT22;37998;53.416;6.730;2022-07-04T05:10:31;14.20;99.90
51982;DHT22;37998;53.416;6.730;2022-07-04T05:12:57;14.30;99.90
51982;DHT22;37998;53.416;6.730;2022-07-04T05:15:22;14.30;99.90
51982;DHT22;37998;53.416;6.730;2022-07-04T05:17:48;14.40;99.90
51982;DHT22;37998;53.416;6.730;2022-07-04T05:20:14;14.30;99.90
51982;DHT22;37998;53.416;6.730;2022-07-04T05:22:39;14.60;99.90
51982;DHT22;37998;53.416;6.730;2022-07-04T05:25:05;14.60;99.90
51982;DHT22;37998;53.416;6.730;2022-07-04T05:27:31;14.70;99.90
51982;DHT22;37998;53.416;6.730;2022-07-04T05:29:58;14.80;99.90
51982;DHT22;37998;53.416;6.730;2022-07-04T05:32:25;14.80;99.90
51982;DHT22;37998;53.416;6.730;2022-07-04T05:34:50;14.90;99.90
51982;DHT22;37998;53.416;6.730;2022-07-04T05:37:17;14.90;99.90
51982;DHT22;37998;53.416;6.730;2022-07-04T05:39:43;14.90;99.90
51982;DHT22;37998;53.416;6.730;2022-07-04T05:42:09;15.00;99.90
51982;DHT22;37998;53.416;6.730;2022-07-04T05:44:34;14.90;99.90
51982;DHT22;37998;53.416;6.730;2022-07-04T05:47:00;15.10;99.90
51982;DHT22;37998;53.416;6.730;2022-07-04T05:49:26;15.10;99.90
51982;DHT22;37998;53.416;6.730;2022-07-04T05:51:52;15.30;99.90
51982;DHT22;37998;53.416;6.730;2022-07-04T05:54:17;15.40;99.90
51982;DHT22;37998;53.416;6.730;2022-07-04T05:56:43;15.60;99.90
51982;DHT22;37998;53.416;6.730;2022-07-04T05:59:09;15.70;99.90
51982;DHT22;37998;53.416;6.730;2022-07-04T06:01:36;15.70;99.90
51982;DHT22;37998;53.416;6.730;2022-07-04T06:04:03;15.80;99.90
51982;DHT22;37998;53.416;6.730;2022-07-04T06:06:29;15.80;99.90
51982;DHT22;37998;53.416;6.730;2022-07-04T06:08:55;15.80;99.90
51982;DHT22;37998;53.416;6.730;2022-07-04T06:11:21;15.90;99.90
51982;DHT22;37998;53.416;6.730;2022-07-04T06:13:47;16.00;99.90
51982;DHT22;37998;53.416;6.730;2022-07-04T06:16:13;16.00;99.90
51982;DHT22;37998;53.416;6.730;2022-07-04T06:18:39;16.00;99.90
51982;DHT22;37998;53.416;6.730;2022-07-04T06:21:05;16.00;99.90
51982;DHT22;37998;53.416;6.730;2022-07-04T06:23:31;16.00;99.90
51982;DHT22;37998;53.416;6.730;2022-07-04T06:25:57;16.10;99.90
51982;DHT22;37998;53.416;6.730;2022-07-04T06:28:23;16.10;99.90
51982;DHT22;37998;53.416;6.730;2022-07-04T06:30:49;16.30;99.90
51982;DHT22;37998;53.416;6.730;2022-07-04T06:33:14;16.30;99.90
51982;DHT22;37998;53.416;6.730;2022-07-04T06:35:40;16.40;99.90
51982;DHT22;37998;53.416;6.730;2022-07-04T06:38:40;16.50;99.90
51982;DHT22;37998;53.416;6.730;2022-07-04T06:41:06;16.60;99.90
51982;DHT22;37998;53.416;6.730;2022-07-04T06:43:31;16.60;99.90
51982;DHT22;37998;53.416;6.730;2022-07-04T06:45:57;16.70;99.90
51982;DHT22;37998;53.416;6.730;2022-07-04T06:48:23;16.70;99.90
51982;DHT22;37998;53.416;6.730;2022-07-04T06:50:48;16.70;99.90
51982;DHT22;37998;53.416;6.730;2022-07-04T06:53:14;16.80;99.90
51982;DHT22;37998;53.416;6.730;2022-07-04T06:55:41;16.90;99.90
51982;DHT22;37998;53.416;6.730;2022-07-04T06:58:07;16.90;99.90
51982;DHT22;37998;53.416;6.730;2022-07-04T07:00:34;17.00;99.90
51982;DHT22;37998;53.416;6.730;2022-07-04T07:03:01;17.30;99.90
51982;DHT22;37998;53.416;6.730;2022-07-04T07:05:28;17.40;99.90
51982;DHT22;37998;53.416;6.730;2022-07-04T07:07:55;17.60;99.90
51982;DHT22;37998;53.416;6.730;2022-07-04T07:10:21;17.80;99.90
51982;DHT22;37998;53.416;6.730;2022-07-04T07:12:47;17.80;99.90
51982;DHT22;37998;53.416;6.730;2022-07-04T07:15:13;17.90;99.90
51982;DHT22;37998;53.416;6.730;2022-07-04T07:17:39;18.10;99.90
51982;DHT22;37998;53.416;6.730;2022-07-04T07:20:06;18.20;99.90
51982;DHT22;37998;53.416;6.730;2022-07-04T07:22:32;18.30;99.90
51982;DHT22;37998;53.416;6.730;2022-07-04T07:24:57;18.30;99.90
51982;DHT22;37998;53.416;6.730;2022-07-04T07:27:23;18.30;99.90
51982;DHT22;37998;53.416;6.730;2022-07-04T07:29:49;18.40;99.90
51982;DHT22;37998;53.416;6.730;2022-07-04T07:32:14;18.40;99.90
51982;DHT22;37998;53.416;6.730;2022-07-04T07:34:40;18.40;99.90
51982;DHT22;37998;53.416;6.730;2022-07-04T07:37:06;18.40;99.90
51982;DHT22;37998;53.416;6.730;2022-07-04T07:39:35;18.40;99.90
51982;DHT22;37998;53.416;6.730;2022-07-04T07:42:01;18.40;99.90
51982;DHT22;37998;53.416;6.730;2022-07-04T07:44:26;18.50;99.90
51982;DHT22;37998;53.416;6.730;2022-07-04T07:46:52;18.70;99.90
51982;DHT22;37998;53.416;6.730;2022-07-04T07:49:18;18.70;99.90
51982;DHT22;37998;53.416;6.730;2022-07-04T07:51:44;18.70;99.90
51982;DHT22;37998;53.416;6.730;2022-07-04T07:54:10;18.80;99.90
51982;DHT22;37998;53.416;6.730;2022-07-04T07:56:35;18.80;99.90
51982;DHT22;37998;53.416;6.730;2022-07-04T07:59:01;18.90;99.90
51982;DHT22;37998;53.416;6.730;2022-07-04T08:01:27;18.90;99.90
51982;DHT22;37998;53.416;6.730;2022-07-04T08:03:52;18.90;99.90
51982;DHT22;37998;53.416;6.730;2022-07-04T08:06:37;18.90;99.90
51982;DHT22;37998;53.416;6.730;2022-07-04T08:09:03;19.00;99.90
51982;DHT22;37998;53.416;6.730;2022-07-04T08:11:29;19.10;99.90
51982;DHT22;37998;53.416;6.730;2022-07-04T08:13:54;19.10;99.90
51982;DHT22;37998;53.416;6.730;2022-07-04T08:16:20;19.10;99.90
51982;DHT22;37998;53.416;6.730;2022-07-04T08:18:46;19.00;99.90
51982;DHT22;37998;53.416;6.730;2022-07-04T08:21:12;18.90;99.90
51982;DHT22;37998;53.416;6.730;2022-07-04T08:23:39;18.90;99.90
51982;DHT22;37998;53.416;6.730;2022-07-04T08:26:05;18.90;99.90
51982;DHT22;37998;53.416;6.730;2022-07-04T08:28:31;19.10;99.90
51982;DHT22;37998;53.416;6.730;2022-07-04T08:30:57;19.20;99.90
51982;DHT22;37998;53.416;6.730;2022-07-04T08:33:23;19.20;99.90
51982;DHT22;37998;53.416;6.730;2022-07-04T08:35:49;19.20;99.90
51982;DHT22;37998;53.416;6.730;2022-07-04T08:38:16;19.30;99.90
51982;DHT22;37998;53.416;6.730;2022-07-04T08:40:42;19.50;99.90
51982;DHT22;37998;53.416;6.730;2022-07-04T08:43:13;19.70;99.90
51982;DHT22;37998;53.416;6.730;2022-07-04T08:45:40;19.70;99.90
51982;DHT22;37998;53.416;6.730;2022-07-04T08:48:09;19.80;99.90
51982;DHT22;37998;53.416;6.730;2022-07-04T08:50:38;19.90;99.90
51982;DHT22;37998;53.416;6.730;2022-07-04T08:53:11;20.00;99.90
51982;DHT22;37998;53.416;6.730;2022-07-04T08:55:39;20.10;99.90
51982;DHT22;37998;53.416;6.730;2022-07-04T08:58:24;20.30;99.90
51982;DHT22;37998;53.416;6.730;2022-07-04T09:00:57;20.30;99.90
51982;DHT22;37998;53.416;6.730;2022-07-04T09:03:24;20.40;99.90
51982;DHT22;37998;53.416;6.730;2022-07-04T09:05:50;20.50;99.90
51982;DHT22;37998;53.416;6.730;2022-07-04T09:08:16;20.50;99.90
51982;DHT22;37998;53.416;6.730;2022-07-04T09:10:42;20.50;99.90
51982;DHT22;37998;53.416;6.730;2022-07-04T09:13:09;20.60;99.90
51982;DHT22;37998;53.416;6.730;2022-07-04T09:15:36;20.70;99.90
51982;DHT22;37998;53.416;6.730;2022-07-04T09:18:02;20.80;99.90
51982;DHT22;37998;53.416;6.730;2022-07-04T09:20:30;20.90;99.60
51982;DHT22;37998;53.416;6.730;2022-07-04T09:22:56;20.90;99.60
51982;DHT22;37998;53.416;6.730;2022-07-04T09:25:24;21.00;99.60
51982;DHT22;37998;53.416;6.730;2022-07-04T09:27:57;21.00;99.90
51982;DHT22;37998;53.416;6.730;2022-07-04T09:30:26;21.10;99.90
51982;DHT22;37998;53.416;6.730;2022-07-04T09:32:56;21.00;99.70
51982;DHT22;37998;53.416;6.730;2022-07-04T09:35:27;20.80;99.70
51982;DHT22;37998;53.416;6.730;2022-07-04T09:37:56;20.60;99.90
51982;DHT22;37998;53.416;6.730;2022-07-04T09:40:37;20.60;99.90
51982;DHT22;37998;53.416;6.730;2022-07-04T09:43:22;20.70;99.90
51982;DHT22;37998;53.416;6.730;2022-07-04T09:45:58;20.90;99.90
51982;DHT22;37998;53.416;6.730;2022-07-04T09:48:25;21.10;99.90
51982;DHT22;37998;53.416;6.730;2022-07-04T09:50:51;21.10;99.80
51982;DHT22;37998;53.416;6.730;2022-07-04T09:53:17;21.20;99.70
51982;DHT22;37998;53.416;6.730;2022-07-04T09:55:43;21.30;99.40
51982;DHT22;37998;53.416;6.730;2022-07-04T09:58:12;21.20;99.00
51982;DHT22;37998;53.416;6.730;2022-07-04T10:00:41;21.20;98.70
51982;DHT22;37998;53.416;6.730;2022-07-04T10:03:21;21.10;98.80
51982;DHT22;37998;53.416;6.730;2022-07-04T10:06:30;20.80;97.90
51982;DHT22;37998;53.416;6.730;2022-07-04T10:08:38;20.60;98.10
51982;DHT22;37998;53.416;6.730;2022-07-04T10:11:05;20.60;98.00
51982;DHT22;37998;53.416;6.730;2022-07-04T10:13:31;20.70;98.00
51982;DHT22;37998;53.416;6.730;2022-07-04T10:15:58;21.00;97.90
51982;DHT22;37998;53.416;6.730;2022-07-04T10:18:24;21.10;97.00
51982;DHT22;37998;53.416;6.730;2022-07-04T10:20:52;21.30;96.10
51982;DHT22;37998;53.416;6.730;2022-07-04T10:23:20;21.40;95.90
51982;DHT22;37998;53.416;6.730;2022-07-04T10:25:47;21.50;95.60
51982;DHT22;37998;53.416;6.730;2022-07-04T10:28:13;21.70;95.60
51982;DHT22;37998;53.416;6.730;2022-07-04T10:30:40;21.80;95.10
51982;DHT22;37998;53.416;6.730;2022-07-04T10:33:09;22.00;95.00
51982;DHT22;37998;53.416;6.730;2022-07-04T10:35:54;22.20;94.50
51982;DHT22;37998;53.416;6.730;2022-07-04T10:40:49;22.10;94.30
51982;DHT22;37998;53.416;6.730;2022-07-04T10:49:08;22.00;94.90
51982;DHT22;37998;53.416;6.730;2022-07-04T10:51:47;22.00;95.40
51982;DHT22;37998;53.416;6.730;2022-07-04T10:56:52;21.80;96.20
51982;DHT22;37998;53.416;6.730;2022-07-04T10:59:25;21.50;96.40
51982;DHT22;37998;53.416;6.730;2022-07-04T11:04:47;21.20;97.00
51982;DHT22;37998;53.416;6.730;2022-07-04T11:07:17;21.20;97.30
51982;DHT22;37998;53.416;6.730;2022-07-04T11:09:44;21.10;97.50
51982;DHT22;37998;53.416;6.730;2022-07-04T11:12:10;21.30;97.60
51982;DHT22;37998;53.416;6.730;2022-07-04T11:14:42;21.40;97.30
51982;DHT22;37998;53.416;6.730;2022-07-04T11:17:14;21.60;97.00
51982;DHT22;37998;53.416;6.730;2022-07-04T11:19:41;21.60;96.40
51982;DHT22;37998;53.416;6.730;2022-07-04T11:22:09;21.80;96.50
51982;DHT22;37998;53.416;6.730;2022-07-04T11:24:37;21.80;96.70
51982;DHT22;37998;53.416;6.730;2022-07-04T11:27:03;21.60;96.50
51982;DHT22;37998;53.416;6.730;2022-07-04T11:29:30;21.40;96.50
51982;DHT22;37998;53.416;6.730;2022-07-04T11:31:56;21.40;97.00
51982;DHT22;37998;53.416;6.730;2022-07-04T11:34:22;21.60;97.40
51982;DHT22;37998;53.416;6.730;2022-07-04T11:36:50;21.80;97.20
51982;DHT22;37998;53.416;6.730;2022-07-04T11:39:18;21.90;96.70
51982;DHT22;37998;53.416;6.730;2022-07-04T11:41:53;21.80;96.80
51982;DHT22;37998;53.416;6.730;2022-07-04T11:44:39;21.60;96.40
51982;DHT22;37998;53.416;6.730;2022-07-04T11:47:40;21.60;96.80
51982;DHT22;37998;53.416;6.730;2022-07-04T11:50:11;21.90;96.60
51982;DHT22;37998;53.416;6.730;2022-07-04T11:55:03;21.80;96.20
51982;DHT22;37998;53.416;6.730;2022-07-04T11:57:33;21.70;96.50
51982;DHT22;37998;53.416;6.730;2022-07-04T12:00:02;21.70;96.50
51982;DHT22;37998;53.416;6.730;2022-07-04T12:02:32;21.80;96.60
51982;DHT22;37998;53.416;6.730;2022-07-04T12:04:59;21.90;96.10
51982;DHT22;37998;53.416;6.730;2022-07-04T12:07:29;21.90;95.90
51982;DHT22;37998;53.416;6.730;2022-07-04T12:09:56;21.90;95.10
51982;DHT22;37998;53.416;6.730;2022-07-04T12:12:22;22.10;95.00
51982;DHT22;37998;53.416;6.730;2022-07-04T12:15:06;22.30;94.40
51982;DHT22;37998;53.416;6.730;2022-07-04T12:20:02;22.30;92.50
51982;DHT22;37998;53.416;6.730;2022-07-04T12:25:00;22.20;93.20
51982;DHT22;37998;53.416;6.730;2022-07-04T12:27:26;22.20;93.70
51982;DHT22;37998;53.416;6.730;2022-07-04T12:29:53;22.20;93.60
51982;DHT22;37998;53.416;6.730;2022-07-04T12:32:20;22.10;93.50
51982;DHT22;37998;53.416;6.730;2022-07-04T12:34:46;22.00;93.40
51982;DHT22;37998;53.416;6.730;2022-07-04T12:37:13;22.00;93.40
51982;DHT22;37998;53.416;6.730;2022-07-04T12:39:40;22.10;93.20
51982;DHT22;37998;53.416;6.730;2022-07-04T12:42:07;21.90;93.20
51982;DHT22;37998;53.416;6.730;2022-07-04T12:44:33;21.60;93.30
51982;DHT22;37998;53.416;6.730;2022-07-04T12:46:59;21.40;93.70
51982;DHT22;37998;53.416;6.730;2022-07-04T12:49:25;21.50;94.20
51982;DHT22;37998;53.416;6.730;2022-07-04T12:51:51;21.50;94.00
51982;DHT22;37998;53.416;6.730;2022-07-04T12:54:17;21.40;93.90
51982;DHT22;37998;53.416;6.730;2022-07-04T12:56:45;21.30;93.90
51982;DHT22;37998;53.416;6.730;2022-07-04T12:59:15;21.40;94.00
51982;DHT22;37998;53.416;6.730;2022-07-04T13:01:44;21.40;93.50
51982;DHT22;37998;53.416;6.730;2022-07-04T13:04:11;21.40;93.70
51982;DHT22;37998;53.416;6.730;2022-07-04T13:06:38;21.40;93.80
51982;DHT22;37998;53.416;6.730;2022-07-04T13:09:05;21.30;94.10
51982;DHT22;37998;53.416;6.730;2022-07-04T13:11:33;21.20;93.80
51982;DHT22;37998;53.416;6.730;2022-07-04T13:14:18;21.30;94.50
51982;DHT22;37998;53.416;6.730;2022-07-04T13:16:44;21.40;94.60
51982;DHT22;37998;53.416;6.730;2022-07-04T13:19:10;21.50;94.10
51982;DHT22;37998;53.416;6.730;2022-07-04T13:21:36;21.40;94.00
51982;DHT22;37998;53.416;6.730;2022-07-04T13:24:02;21.30;94.10
51982;DHT22;37998;53.416;6.730;2022-07-04T13:26:28;21.40;94.60
51982;DHT22;37998;53.416;6.730;2022-07-04T13:28:56;21.50;94.20
51982;DHT22;37998;53.416;6.730;2022-07-04T13:31:22;21.60;94.40
51982;DHT22;37998;53.416;6.730;2022-07-04T13:33:47;21.50;94.10
51982;DHT22;37998;53.416;6.730;2022-07-04T13:36:13;21.40;94.20
51982;DHT22;37998;53.416;6.730;2022-07-04T13:38:40;21.40;94.30
51982;DHT22;37998;53.416;6.730;2022-07-04T13:41:06;21.40;94.10
51982;DHT22;37998;53.416;6.730;2022-07-04T13:43:32;21.50;93.90
51982;DHT22;37998;53.416;6.730;2022-07-04T13:45:58;21.50;93.10
51982;DHT22;37998;53.416;6.730;2022-07-04T13:48:24;21.70;93.00
51982;DHT22;37998;53.416;6.730;2022-07-04T13:50:50;21.90;92.80
51982;DHT22;37998;53.416;6.730;2022-07-04T13:53:16;22.00;92.30
51982;DHT22;37998;53.416;6.730;2022-07-04T13:55:41;22.10;91.90
51982;DHT22;37998;53.416;6.730;2022-07-04T13:58:09;22.00;91.80
51982;DHT22;37998;53.416;6.730;2022-07-04T14:00:36;22.10;91.90
51982;DHT22;37998;53.416;6.730;2022-07-04T14:03:02;22.10;91.50
51982;DHT22;37998;53.416;6.730;2022-07-04T14:05:28;21.90;91.60
51982;DHT22;37998;53.416;6.730;2022-07-04T14:07:54;21.80;91.80
51982;DHT22;37998;53.416;6.730;2022-07-04T14:10:20;21.60;91.40
51982;DHT22;37998;53.416;6.730;2022-07-04T14:12:46;21.30;91.50
51982;DHT22;37998;53.416;6.730;2022-07-04T14:15:12;21.20;92.00
51982;DHT22;37998;53.416;6.730;2022-07-04T14:17:38;21.20;92.20
51982;DHT22;37998;53.416;6.730;2022-07-04T14:20:08;21.20;92.20
51982;DHT22;37998;53.416;6.730;2022-07-04T14:22:38;21.20;92.00
51982;DHT22;37998;53.416;6.730;2022-07-04T14:25:06;21.20;91.90
51982;DHT22;37998;53.416;6.730;2022-07-04T14:27:32;21.20;92.00
51982;DHT22;37998;53.416;6.730;2022-07-04T14:29:58;21.40;92.20
51982;DHT22;37998;53.416;6.730;2022-07-04T14:32:24;21.50;92.00
51982;DHT22;37998;53.416;6.730;2022-07-04T14:34:50;21.40;91.70
51982;DHT22;37998;53.416;6.730;2022-07-04T14:37:15;21.40;91.60
51982;DHT22;37998;53.416;6.730;2022-07-04T14:39:41;21.50;91.60
51982;DHT22;37998;53.416;6.730;2022-07-04T14:42:07;21.40;91.20
51982;DHT22;37998;53.416;6.730;2022-07-04T14:44:33;21.40;91.50
51982;DHT22;37998;53.416;6.730;2022-07-04T14:47:04;21.50;91.60
51982;DHT22;37998;53.416;6.730;2022-07-04T14:49:30;21.50;91.30
51982;DHT22;37998;53.416;6.730;2022-07-04T14:51:56;21.60;91.30
51982;DHT22;37998;53.416;6.730;2022-07-04T14:54:24;21.50;90.50
51982;DHT22;37998;53.416;6.730;2022-07-04T14:56:50;21.40;91.00
51982;DHT22;37998;53.416;6.730;2022-07-04T14:59:16;21.40;90.90
51982;DHT22;37998;53.416;6.730;2022-07-04T15:01:42;21.40;90.60
51982;DHT22;37998;53.416;6.730;2022-07-04T15:04:07;21.50;90.50
51982;DHT22;37998;53.416;6.730;2022-07-04T15:06:33;21.50;90.30
51982;DHT22;37998;53.416;6.730;2022-07-04T15:08:59;21.40;89.50
51982;DHT22;37998;53.416;6.730;2022-07-04T15:11:25;21.40;89.50
51982;DHT22;37998;53.416;6.730;2022-07-04T15:13:51;21.40;89.90
51982;DHT22;37998;53.416;6.730;2022-07-04T15:16:20;21.20;89.60
51982;DHT22;37998;53.416;6.730;2022-07-04T15:18:45;21.20;89.90
51982;DHT22;37998;53.416;6.730;2022-07-04T15:21:11;21.10;90.60
51982;DHT22;37998;53.416;6.730;2022-07-04T15:23:55;21.10;90.70
51982;DHT22;37998;53.416;6.730;2022-07-04T15:26:37;21.00;91.10
51982;DHT22;37998;53.416;6.730;2022-07-04T15:29:03;21.00;91.20
51982;DHT22;37998;53.416;6.730;2022-07-04T15:31:28;21.00;91.30
51982;DHT22;37998;53.416;6.730;2022-07-04T15:33:54;20.90;91.00
51982;DHT22;37998;53.416;6.730;2022-07-04T15:36:20;20.90;91.60
51982;DHT22;37998;53.416;6.730;2022-07-04T15:38:47;20.90;91.10
51982;DHT22;37998;53.416;6.730;2022-07-04T15:41:12;21.00;91.20
51982;DHT22;37998;53.416;6.730;2022-07-04T15:43:42;21.10;91.20
51982;DHT22;37998;53.416;6.730;2022-07-04T15:46:09;21.20;91.10
51982;DHT22;37998;53.416;6.730;2022-07-04T15:48:35;21.30;90.80
51982;DHT22;37998;53.416;6.730;2022-07-04T15:51:00;21.20;90.50